createdAt,value
2018-01-01T00:00:18.967Z,1008.95
2018-01-01T00:01:18.816Z,1008.88
2018-01-01T00:02:18.981Z,1008.85
2018-01-01T00:03:19.015Z,1008.97
2018-01-01T00:04:18.916Z,1008.86
2018-01-01T00:05:19.171Z,1008.84
2018-01-01T00:06:19.375Z,1008.93
2018-01-01T00:07:19.479Z,1009
2018-01-01T00:08:19.845Z,1008.99
2018-01-01T00:09:19.718Z,1009.02
2018-01-01T00:10:19.371Z,1009.02
2018-01-01T00:11:19.943Z,1009.09
2018-01-01T00:12:19.203Z,1009.2
2018-01-01T00:13:19.171Z,1009.21
2018-01-01T00:14:19.288Z,1009.15
2018-01-01T00:15:19.718Z,1009.15
2018-01-01T00:16:18.901Z,1009.16
2018-01-01T00:17:20.036Z,1009.07
2018-01-01T00:18:19.241Z,1009.09
2018-01-01T00:19:19.278Z,1009.12
2018-01-01T00:20:19.465Z,1009.11
2018-01-01T00:21:19.555Z,1009.15
2018-01-01T00:22:19.649Z,1009.12
2018-01-01T00:23:19.857Z,1009.11
2018-01-01T00:24:19.737Z,1009.14
2018-01-01T00:25:19.207Z,1009.15
2018-01-01T00:26:19.215Z,1009.16
2018-01-01T00:27:19.094Z,1009.16
2018-01-01T00:28:19.201Z,1009.15
2018-01-01T00:29:19.429Z,1009.16
2018-01-01T00:30:19.888Z,1009.18
2018-01-01T00:31:19.721Z,1009.09
2018-01-01T00:32:19.733Z,1009.13
2018-01-01T00:33:19.776Z,1009.08
2018-01-01T00:34:19.685Z,1009.14
2018-01-01T00:35:19.607Z,1009.09
2018-01-01T00:36:19.072Z,1009.16
2018-01-01T00:37:19.669Z,1009.08
2018-01-01T00:38:19.834Z,1009.11
2018-01-01T00:39:18.972Z,1009.13
2018-01-01T00:40:19.023Z,1009.16
2018-01-01T00:41:19.343Z,1009.24
2018-01-01T00:42:19.498Z,1009.32
2018-01-01T00:43:19.696Z,1009.22
2018-01-01T00:44:19.690Z,1009.3
2018-01-01T00:45:18.753Z,1009.23
2018-01-01T00:46:19.752Z,1009.24
2018-01-01T00:47:19.019Z,1009.35
2018-01-01T00:48:19.458Z,1009.2
2018-01-01T00:49:18.836Z,1009.24
2018-01-01T00:50:19.666Z,1009.28
2018-01-01T00:51:19.794Z,1009.15
2018-01-01T00:52:19.863Z,1009.22
2018-01-01T00:53:19.058Z,1009.27
2018-01-01T00:54:19.357Z,1009.27
2018-01-01T00:55:19.532Z,1009.29
2018-01-01T00:56:19.055Z,1009.27
2018-01-01T00:57:19.327Z,1009.25
2018-01-01T00:58:19.607Z,1009.25
2018-01-01T00:59:19.588Z,1009.24
2018-01-01T01:00:19.584Z,1009.28
2018-01-01T01:01:19.465Z,1009.38
2018-01-01T01:02:18.680Z,1009.38
2018-01-01T01:03:18.918Z,1009.33
2018-01-01T01:04:19.047Z,1009.4
2018-01-01T01:05:19.103Z,1009.35
2018-01-01T01:06:19.548Z,1009.43
2018-01-01T01:07:19.392Z,1009.39
2018-01-01T01:08:19.462Z,1009.42
2018-01-01T01:09:19.852Z,1009.42
2018-01-01T01:10:18.897Z,1009.43
2018-01-01T01:11:19.025Z,1009.39
2018-01-01T01:12:19.079Z,1009.41
2018-01-01T01:13:19.044Z,1009.41
2018-01-01T01:14:19.210Z,1009.45
2018-01-01T01:15:19.214Z,1009.53
2018-01-01T01:16:19.242Z,1009.49
2018-01-01T01:17:19.245Z,1009.55
2018-01-01T01:18:19.375Z,1009.47
2018-01-01T01:19:19.231Z,1009.53
2018-01-01T01:20:19.375Z,1009.54
2018-01-01T01:21:19.426Z,1009.58
2018-01-01T01:22:19.648Z,1009.6
2018-01-01T01:23:20.064Z,1009.56
2018-01-01T01:24:19.679Z,1009.64
2018-01-01T01:25:18.720Z,1009.6
2018-01-01T01:26:19.382Z,1009.73
2018-01-01T01:27:19.441Z,1009.76
2018-01-01T01:28:19.382Z,1009.77
2018-01-01T01:29:19.476Z,1009.82
2018-01-01T01:30:19.387Z,1009.78
2018-01-01T01:31:19.386Z,1009.82
2018-01-01T01:32:19.553Z,1009.79
2018-01-01T01:33:19.437Z,1009.79
2018-01-01T01:34:18.965Z,1009.86
2018-01-01T01:35:19.333Z,1009.87
2018-01-01T01:36:19.124Z,1009.81
2018-01-01T01:37:18.959Z,1009.84
2018-01-01T01:38:19.320Z,1009.81
2018-01-01T01:39:19.061Z,1009.82
2018-01-01T01:40:19.299Z,1009.81
2018-01-01T01:41:19.303Z,1009.9
2018-01-01T01:42:18.946Z,1009.78
2018-01-01T01:43:18.959Z,1009.76
2018-01-01T01:44:19.243Z,1009.82
2018-01-01T01:45:19.396Z,1009.81
2018-01-01T01:46:19.544Z,1009.78
2018-01-01T01:47:19.617Z,1009.85
2018-01-01T01:48:19.141Z,1009.79
2018-01-01T01:49:19.428Z,1009.84
2018-01-01T01:50:19.754Z,1009.81
2018-01-01T01:51:18.458Z,1009.89
2018-01-01T01:52:19.509Z,1009.77
2018-01-01T01:53:19.434Z,1009.76
2018-01-01T01:54:19.691Z,1009.78
2018-01-01T01:55:18.934Z,1009.81
2018-01-01T01:56:19.365Z,1009.82
2018-01-01T01:57:19.669Z,1009.89
2018-01-01T01:58:19.814Z,1009.88
2018-01-01T01:59:18.903Z,1009.89
2018-01-01T02:00:19.034Z,1009.9
2018-01-01T02:01:19.423Z,1009.91
2018-01-01T02:02:19.445Z,1009.92
2018-01-01T02:03:19.410Z,1010
2018-01-01T02:04:18.929Z,1009.91
2018-01-01T02:05:18.984Z,1009.92
2018-01-01T02:06:18.980Z,1009.91
2018-01-01T02:07:18.918Z,1009.94
2018-01-01T02:08:18.931Z,1010
2018-01-01T02:09:18.802Z,1009.99
2018-01-01T02:10:18.662Z,1009.97
2018-01-01T02:11:18.427Z,1010
2018-01-01T02:12:17.329Z,1010.05
2018-01-01T02:13:17.325Z,1009.97
2018-01-01T02:14:19.137Z,1009.95
2018-01-01T02:15:19.324Z,1009.94
2018-01-01T02:16:17.469Z,1009.99
2018-01-01T02:17:18.635Z,1010.06
2018-01-01T02:18:18.618Z,1010.06
2018-01-01T02:19:18.827Z,1010.14
2018-01-01T02:20:19.327Z,1010.12
2018-01-01T02:21:18.643Z,1010.12
2018-01-01T02:22:18.758Z,1010.19
2018-01-01T02:23:19.005Z,1010.2
2018-01-01T02:24:18.988Z,1010.09
2018-01-01T02:25:19.241Z,1010.16
2018-01-01T02:26:19.311Z,1010.15
2018-01-01T02:27:19.206Z,1010.11
2018-01-01T02:28:19.248Z,1010.03
2018-01-01T02:29:19.465Z,1010.1
2018-01-01T02:30:18.658Z,1010.14
2018-01-01T02:31:18.686Z,1010.14
2018-01-01T02:32:18.892Z,1010.2
2018-01-01T02:33:18.873Z,1010.24
2018-01-01T02:34:19.039Z,1010.17
2018-01-01T02:35:18.740Z,1010.25
2018-01-01T02:36:18.407Z,1010.3
2018-01-01T02:37:17.406Z,1010.35
2018-01-01T02:38:17.500Z,1010.32
2018-01-01T02:39:17.152Z,1010.37
2018-01-01T02:40:18.956Z,1010.28
2018-01-01T02:41:17.155Z,1010.27
2018-01-01T02:42:18.817Z,1010.29
2018-01-01T02:43:19.074Z,1010.25
2018-01-01T02:44:17.278Z,1010.3
2018-01-01T02:45:17.479Z,1010.28
2018-01-01T02:46:17.324Z,1010.33
2018-01-01T02:47:17.564Z,1010.29
2018-01-01T02:48:17.350Z,1010.31
2018-01-01T02:49:18.862Z,1010.26
2018-01-01T02:50:19.014Z,1010.24
2018-01-01T02:51:17.248Z,1010.24
2018-01-01T02:52:17.450Z,1010.27
2018-01-01T02:53:19.001Z,1010.3
2018-01-01T02:54:19.059Z,1010.31
2018-01-01T02:55:17.156Z,1010.34
2018-01-01T02:56:18.981Z,1010.25
2018-01-01T02:57:16.978Z,1010.24
2018-01-01T02:58:17.190Z,1010.23
2018-01-01T02:59:17.054Z,1010.19
2018-01-01T03:00:17.079Z,1010.25
2018-01-01T03:01:17.117Z,1010.31
2018-01-01T03:02:19.072Z,1010.35
2018-01-01T03:03:17.010Z,1010.25
2018-01-01T03:04:17.269Z,1010.34
2018-01-01T03:05:18.705Z,1010.3
2018-01-01T03:06:18.621Z,1010.34
2018-01-01T03:07:18.790Z,1010.35
2018-01-01T03:08:18.940Z,1010.27
2018-01-01T03:09:19.128Z,1010.42
2018-01-01T03:10:18.763Z,1010.26
2018-01-01T03:11:19.043Z,1010.28
2018-01-01T03:12:18.909Z,1010.28
2018-01-01T03:13:18.886Z,1010.31
2018-01-01T03:14:19.176Z,1010.36
2018-01-01T03:15:19.261Z,1010.47
2018-01-01T03:16:19.416Z,1010.42
2018-01-01T03:17:19.449Z,1010.46
2018-01-01T03:18:19.651Z,1010.48
2018-01-01T03:19:19.161Z,1010.46
2018-01-01T03:20:19.172Z,1010.4
2018-01-01T03:21:19.455Z,1010.46
2018-01-01T03:22:19.346Z,1010.47
2018-01-01T03:23:19.389Z,1010.41
2018-01-01T03:24:19.344Z,1010.4
2018-01-01T03:25:19.460Z,1010.4
2018-01-01T03:26:19.494Z,1010.4
2018-01-01T03:27:19.537Z,1010.44
2018-01-01T03:28:19.528Z,1010.38
2018-01-01T03:29:19.559Z,1010.35
2018-01-01T03:30:19.243Z,1010.34
2018-01-01T03:31:19.273Z,1010.31
2018-01-01T03:32:18.740Z,1010.34
2018-01-01T03:33:18.601Z,1010.39
2018-01-01T03:34:19.567Z,1010.42
2018-01-01T03:35:18.790Z,1010.35
2018-01-01T03:36:18.639Z,1010.35
2018-01-01T03:37:19.518Z,1010.32
2018-01-01T03:38:19.426Z,1010.38
2018-01-01T03:39:19.346Z,1010.33
2018-01-01T03:40:19.096Z,1010.37
2018-01-01T03:41:19.079Z,1010.33
2018-01-01T03:42:18.807Z,1010.4
2018-01-01T03:43:18.932Z,1010.4
2018-01-01T03:44:19.108Z,1010.42
2018-01-01T03:45:19.294Z,1010.36
2018-01-01T03:46:19.574Z,1010.37
2018-01-01T03:47:19.420Z,1010.35
2018-01-01T03:48:19.396Z,1010.4
2018-01-01T03:49:19.731Z,1010.43
2018-01-01T03:50:19.761Z,1010.44
2018-01-01T03:51:19.586Z,1010.4
2018-01-01T03:52:18.983Z,1010.44
2018-01-01T03:53:18.843Z,1010.4
2018-01-01T03:54:19.112Z,1010.49
2018-01-01T03:55:18.896Z,1010.5
2018-01-01T03:56:19.227Z,1010.54
2018-01-01T03:57:19.150Z,1010.58
2018-01-01T03:58:19.373Z,1010.69
2018-01-01T03:59:19.259Z,1010.75
2018-01-01T04:00:19.477Z,1010.68
2018-01-01T04:01:19.594Z,1010.9
2018-01-01T04:02:19.422Z,1010.83
2018-01-01T04:03:19.267Z,1010.63
2018-01-01T04:04:19.245Z,1010.65
2018-01-01T04:05:19.205Z,1010.73
2018-01-01T04:06:19.264Z,1010.68
2018-01-01T04:07:17.394Z,1010.61
2018-01-01T04:08:17.481Z,1010.59
2018-01-01T04:09:18.464Z,1010.59
2018-01-01T04:10:18.636Z,1010.56
2018-01-01T04:11:18.800Z,1010.61
2018-01-01T04:12:19.271Z,1010.55
2018-01-01T04:13:17.409Z,1010.49
2018-01-01T04:14:17.496Z,1010.54
2018-01-01T04:15:18.860Z,1010.56
2018-01-01T04:16:19.194Z,1010.66
2018-01-01T04:17:18.746Z,1010.55
2018-01-01T04:18:19.054Z,1010.65
2018-01-01T04:19:17.347Z,1010.67
2018-01-01T04:20:18.733Z,1010.73
2018-01-01T04:21:18.506Z,1010.73
2018-01-01T04:22:18.651Z,1010.81
2018-01-01T04:23:18.589Z,1010.74
2018-01-01T04:24:18.843Z,1010.86
2018-01-01T04:25:19.344Z,1010.85
2018-01-01T04:26:17.536Z,1010.88
2018-01-01T04:27:19.321Z,1010.88
2018-01-01T04:28:18.922Z,1010.91
2018-01-01T04:29:18.773Z,1010.87
2018-01-01T04:30:19.341Z,1010.87
2018-01-01T04:31:18.791Z,1010.83
2018-01-01T04:32:19.025Z,1010.97
2018-01-01T04:33:19.085Z,1010.92
2018-01-01T04:34:19.128Z,1010.94
2018-01-01T04:35:17.345Z,1011.05
2018-01-01T04:36:18.827Z,1010.95
2018-01-01T04:37:17.285Z,1010.93
2018-01-01T04:38:18.867Z,1010.89
2018-01-01T04:39:19.013Z,1010.95
2018-01-01T04:40:19.020Z,1010.97
2018-01-01T04:41:19.271Z,1010.89
2018-01-01T04:42:17.497Z,1010.95
2018-01-01T04:43:19.126Z,1010.86
2018-01-01T04:44:17.297Z,1010.91
2018-01-01T04:45:18.783Z,1010.99
2018-01-01T04:46:19.189Z,1010.86
2018-01-01T04:47:17.376Z,1010.91
2018-01-01T04:48:17.562Z,1010.96
2018-01-01T04:49:18.807Z,1010.96
2018-01-01T04:50:18.593Z,1010.95
2018-01-01T04:51:18.728Z,1011.01
2018-01-01T04:52:19.052Z,1010.98
2018-01-01T04:53:17.429Z,1010.93
2018-01-01T04:54:18.804Z,1011.01
2018-01-01T04:55:19.008Z,1010.96
2018-01-01T04:56:19.178Z,1010.94
2018-01-01T04:57:17.457Z,1011.01
2018-01-01T04:58:18.835Z,1010.99
2018-01-01T04:59:18.957Z,1011.03
2018-01-01T05:00:19.155Z,1010.99
2018-01-01T05:01:17.251Z,1011.01
2018-01-01T05:02:17.565Z,1011.02
2018-01-01T05:03:18.866Z,1011.05
2018-01-01T05:04:19.004Z,1011.05
2018-01-01T05:05:17.551Z,1011.07
2018-01-01T05:06:18.904Z,1011.1
2018-01-01T05:07:19.115Z,1011.07
2018-01-01T05:08:17.450Z,1011.09
2018-01-01T05:09:17.610Z,1011.14
2018-01-01T05:10:17.447Z,1011.13
2018-01-01T05:11:17.519Z,1011.21
2018-01-01T05:12:17.160Z,1011.28
2018-01-01T05:13:17.385Z,1011.26
2018-01-01T05:14:17.226Z,1011.41
2018-01-01T05:15:17.345Z,1011.42
2018-01-01T05:16:18.907Z,1011.49
2018-01-01T05:17:19.109Z,1011.48
2018-01-01T05:18:17.419Z,1011.49
2018-01-01T05:19:18.696Z,1011.48
2018-01-01T05:20:18.882Z,1011.41
2018-01-01T05:21:19.067Z,1011.3
2018-01-01T05:22:17.443Z,1011.36
2018-01-01T05:23:19.092Z,1011.41
2018-01-01T05:24:17.299Z,1011.44
2018-01-01T05:25:17.075Z,1011.39
2018-01-01T05:26:17.374Z,1011.41
2018-01-01T05:27:17.584Z,1011.43
2018-01-01T05:28:17.325Z,1011.43
2018-01-01T05:29:19.008Z,1011.4
2018-01-01T05:30:19.100Z,1011.38
2018-01-01T05:31:17.307Z,1011.44
2018-01-01T05:32:17.342Z,1011.45
2018-01-01T05:33:19.321Z,1011.48
2018-01-01T05:34:17.311Z,1011.51
2018-01-01T05:35:17.181Z,1011.55
2018-01-01T05:36:17.366Z,1011.56
2018-01-01T05:37:17.504Z,1011.52
2018-01-01T05:38:18.931Z,1011.6
2018-01-01T05:39:19.305Z,1011.67
2018-01-01T05:40:19.647Z,1011.66
2018-01-01T05:41:19.737Z,1011.54
2018-01-01T05:42:19.030Z,1011.69
2018-01-01T05:43:19.419Z,1011.66
2018-01-01T05:44:19.894Z,1011.71
2018-01-01T05:45:19.376Z,1011.67
2018-01-01T05:46:19.465Z,1011.7
2018-01-01T05:47:19.556Z,1011.73
2018-01-01T05:48:19.150Z,1011.64
2018-01-01T05:49:19.342Z,1011.61
2018-01-01T05:50:20.063Z,1011.66
2018-01-01T05:51:19.489Z,1011.72
2018-01-01T05:52:19.831Z,1011.75
2018-01-01T05:53:19.095Z,1011.74
2018-01-01T05:54:19.341Z,1011.8
2018-01-01T05:55:19.556Z,1011.87
2018-01-01T05:56:20.103Z,1011.83
2018-01-01T05:57:19.579Z,1011.9
2018-01-01T05:58:20.055Z,1011.9
2018-01-01T05:59:19.375Z,1011.92
2018-01-01T06:00:19.504Z,1011.98
2018-01-01T06:01:19.699Z,1011.96
2018-01-01T06:02:19.884Z,1012
2018-01-01T06:03:19.098Z,1012.05
2018-01-01T06:04:18.864Z,1012.04
2018-01-01T06:05:19.129Z,1011.93
2018-01-01T06:06:19.419Z,1012.01
2018-01-01T06:07:19.784Z,1012.02
2018-01-01T06:08:17.067Z,1012.04
2018-01-01T06:09:18.667Z,1012.01
2018-01-01T06:10:19.054Z,1011.99
2018-01-01T06:11:17.345Z,1011.95
2018-01-01T06:12:17.635Z,1011.96
2018-01-01T06:13:17.432Z,1012
2018-01-01T06:14:19.036Z,1011.97
2018-01-01T06:15:17.195Z,1012.07
2018-01-01T06:16:17.495Z,1012.09
2018-01-01T06:17:17.449Z,1012.09
2018-01-01T06:18:17.605Z,1012.18
2018-01-01T06:19:17.328Z,1012.14
2018-01-01T06:20:17.151Z,1012.16
2018-01-01T06:21:17.584Z,1012.29
2018-01-01T06:22:18.945Z,1012.23
2018-01-01T06:23:17.110Z,1012.24
2018-01-01T06:24:17.180Z,1012.27
2018-01-01T06:25:17.271Z,1012.22
2018-01-01T06:26:17.158Z,1012.28
2018-01-01T06:27:17.608Z,1012.28
2018-01-01T06:28:19.102Z,1012.18
2018-01-01T06:29:17.189Z,1012.25
2018-01-01T06:30:17.262Z,1012.26
2018-01-01T06:31:17.113Z,1012.36
2018-01-01T06:32:17.353Z,1012.39
2018-01-01T06:33:17.159Z,1012.4
2018-01-01T06:34:18.817Z,1012.44
2018-01-01T06:35:17.636Z,1012.4
2018-01-01T06:36:17.347Z,1012.44
2018-01-01T06:37:17.533Z,1012.52
2018-01-01T06:38:17.628Z,1012.53
2018-01-01T06:40:26.676Z,1012.52
2018-01-01T06:41:17.625Z,1012.59
2018-01-01T06:42:18.753Z,1012.55
2018-01-01T06:43:17.601Z,1012.53
2018-01-01T06:44:19.429Z,1012.5
2018-01-01T06:45:19.256Z,1012.53
2018-01-01T06:46:19.034Z,1012.51
2018-01-01T06:47:19.012Z,1012.56
2018-01-01T06:48:19.085Z,1012.59
2018-01-01T06:49:19.574Z,1012.57
2018-01-01T06:50:19.399Z,1012.56
2018-01-01T06:51:19.374Z,1012.54
2018-01-01T06:52:19.482Z,1012.57
2018-01-01T06:53:19.624Z,1012.57
2018-01-01T06:54:18.687Z,1012.62
2018-01-01T06:55:18.149Z,1012.54
2018-01-01T06:56:19.545Z,1012.6
2018-01-01T06:57:19.656Z,1012.57
2018-01-01T06:58:18.703Z,1012.47
2018-01-01T06:59:18.668Z,1012.44
2018-01-01T07:00:18.994Z,1012.42
2018-01-01T07:01:19.028Z,1012.42
2018-01-01T07:02:19.024Z,1012.44
2018-01-01T07:03:18.939Z,1012.5
2018-01-01T07:04:18.869Z,1012.61
2018-01-01T07:05:18.964Z,1012.58
2018-01-01T07:06:18.506Z,1012.6
2018-01-01T07:07:19.440Z,1012.59
2018-01-01T07:08:19.038Z,1012.64
2018-01-01T07:09:19.131Z,1012.6
2018-01-01T07:10:19.170Z,1012.6
2018-01-01T07:11:19.163Z,1012.58
2018-01-01T07:12:19.093Z,1012.65
2018-01-01T07:13:19.174Z,1012.56
2018-01-01T07:14:19.262Z,1012.59
2018-01-01T07:15:19.229Z,1012.62
2018-01-01T07:16:19.700Z,1012.57
2018-01-01T07:17:18.547Z,1012.6
2018-01-01T07:18:18.907Z,1012.61
2018-01-01T07:19:19.253Z,1012.66
2018-01-01T07:22:22.382Z,1012.82
2018-01-01T07:23:18.524Z,1012.8
2018-01-01T07:24:19.720Z,1012.9
2018-01-01T07:27:36.869Z,1012.95
2018-01-01T07:28:18.976Z,1012.99
2018-01-01T07:29:19.252Z,1013.07
2018-01-01T07:30:19.266Z,1012.97
2018-01-01T07:31:19.138Z,1013.03
2018-01-01T07:32:18.783Z,1013.03
2018-01-01T07:33:18.974Z,1013.01
2018-01-01T07:34:18.878Z,1013.04
2018-01-01T07:35:18.830Z,1013.1
2018-01-01T07:36:18.757Z,1013.09
2018-01-01T07:37:18.808Z,1013.16
2018-01-01T07:38:18.681Z,1013.09
2018-01-01T07:39:18.624Z,1013.14
2018-01-01T07:40:18.556Z,1013.18
2018-01-01T07:41:19.449Z,1013.14
2018-01-01T07:42:19.310Z,1013.21
2018-01-01T07:43:18.875Z,1013.25
2018-01-01T07:44:18.471Z,1013.18
2018-01-01T07:45:19.266Z,1013.29
2018-01-01T07:46:19.677Z,1013.3
2018-01-01T07:47:18.872Z,1013.3
2018-01-01T07:48:18.686Z,1013.32
2018-01-01T07:49:18.815Z,1013.29
2018-01-01T07:50:18.782Z,1013.33
2018-01-01T07:51:18.675Z,1013.29
2018-01-01T07:52:19.041Z,1013.34
2018-01-01T07:53:19.064Z,1013.32
2018-01-01T07:54:18.750Z,1013.35
2018-01-01T07:55:19.300Z,1013.32
2018-01-01T07:56:19.261Z,1013.34
2018-01-01T07:57:19.040Z,1013.43
2018-01-01T07:58:18.929Z,1013.39
2018-01-01T07:59:19.006Z,1013.42
2018-01-01T08:00:19.151Z,1013.44
2018-01-01T08:01:18.836Z,1013.46
2018-01-01T08:02:18.701Z,1013.48
2018-01-01T08:03:18.842Z,1013.46
2018-01-01T08:04:18.858Z,1013.5
2018-01-01T08:05:19.104Z,1013.5
2018-01-01T08:06:18.971Z,1013.55
2018-01-01T08:07:19.058Z,1013.54
2018-01-01T08:08:19.089Z,1013.52
2018-01-01T08:09:17.179Z,1013.58
2018-01-01T08:10:18.451Z,1013.57
2018-01-01T08:11:18.579Z,1013.6
2018-01-01T08:12:18.659Z,1013.57
2018-01-01T08:13:18.613Z,1013.53
2018-01-01T08:14:18.544Z,1013.62
2018-01-01T08:15:18.501Z,1013.58
2018-01-01T08:16:17.290Z,1013.61
2018-01-01T08:17:19.113Z,1013.57
2018-01-01T08:18:19.188Z,1013.66
2018-01-01T08:19:19.100Z,1013.66
2018-01-01T08:20:19.197Z,1013.65
2018-01-01T08:21:17.269Z,1013.68
2018-01-01T08:22:18.635Z,1013.67
2018-01-01T08:23:18.782Z,1013.72
2018-01-01T08:24:18.690Z,1013.69
2018-01-01T08:25:18.829Z,1013.7
2018-01-01T08:26:18.673Z,1013.75
2018-01-01T08:27:19.370Z,1013.72
2018-01-01T08:28:18.576Z,1013.76
2018-01-01T08:29:17.253Z,1013.71
2018-01-01T08:30:17.275Z,1013.76
2018-01-01T08:31:18.567Z,1013.77
2018-01-01T08:32:18.634Z,1013.76
2018-01-01T08:33:18.844Z,1013.8
2018-01-01T08:34:18.818Z,1013.77
2018-01-01T08:35:18.838Z,1013.8
2018-01-01T08:36:18.793Z,1013.89
2018-01-01T08:37:18.334Z,1013.84
2018-01-01T08:38:18.583Z,1013.83
2018-01-01T08:39:18.255Z,1013.8
2018-01-01T08:40:19.405Z,1013.87
2018-01-01T08:41:19.289Z,1013.96
2018-01-01T08:42:19.185Z,1013.89
2018-01-01T08:43:19.191Z,1013.95
2018-01-01T08:44:19.078Z,1014
2018-01-01T08:45:19.258Z,1014.03
2018-01-01T08:46:18.873Z,1014.01
2018-01-01T08:49:21.277Z,1014.11
2018-01-01T08:50:18.461Z,1014.17
2018-01-01T08:51:18.358Z,1014.19
2018-01-01T08:52:18.322Z,1014.16
2018-01-01T08:53:18.193Z,1014.21
2018-01-01T08:54:18.219Z,1014.19
2018-01-01T08:55:18.162Z,1014.22
2018-01-01T08:57:17.830Z,1014.27
2018-01-01T08:58:17.990Z,1014.3
2018-01-01T08:59:18.121Z,1014.25
2018-01-01T09:00:18.375Z,1014.27
2018-01-01T09:01:17.884Z,1014.3
2018-01-01T09:02:18.201Z,1014.31
2018-01-01T09:03:18.401Z,1014.2
2018-01-01T09:04:18.498Z,1014.25
2018-01-01T09:05:17.889Z,1014.23
2018-01-01T09:06:18.146Z,1014.27
2018-01-01T09:07:18.610Z,1014.26
2018-01-01T09:08:17.992Z,1014.16
2018-01-01T09:09:18.474Z,1014.26
2018-01-01T09:10:17.845Z,1014.33
2018-01-01T09:11:18.371Z,1014.22
2018-01-01T09:12:17.853Z,1014.14
2018-01-01T09:13:18.368Z,1014.23
2018-01-01T09:14:17.843Z,1014.22
2018-01-01T09:15:18.032Z,1014.12
2018-01-01T09:16:17.409Z,1014.15
2018-01-01T09:17:17.622Z,1014.17
2018-01-01T09:18:17.990Z,1014.17
2018-01-01T09:19:18.434Z,1014.19
2018-01-01T09:20:17.680Z,1014.1
2018-01-01T09:21:17.793Z,1014.1
2018-01-01T09:22:17.637Z,1014.02
2018-01-01T09:23:18.023Z,1014.05
2018-01-01T09:24:18.485Z,1014.12
2018-01-01T09:25:17.858Z,1014.03
2018-01-01T09:26:18.207Z,1014.04
2018-01-01T09:27:18.302Z,1014.03
2018-01-01T09:28:17.631Z,1014.05
2018-01-01T09:29:17.756Z,1014
2018-01-01T09:30:17.956Z,1014.04
2018-01-01T09:31:17.964Z,1014.21
2018-01-01T09:32:18.163Z,1014.03
2018-01-01T09:33:18.372Z,1014.08
2018-01-01T09:34:17.709Z,1014.06
2018-01-01T09:35:17.876Z,1014.09
2018-01-01T09:36:18.145Z,1014.11
2018-01-01T09:37:17.612Z,1014.2
2018-01-01T09:38:17.912Z,1014.14
2018-01-01T09:39:18.251Z,1014.2
2018-01-01T09:40:18.412Z,1014.33
2018-01-01T09:41:17.582Z,1014.29
2018-01-01T09:42:17.863Z,1014.23
2018-01-01T09:43:18.231Z,1014.29
2018-01-01T09:44:18.240Z,1014.21
2018-01-01T09:45:17.489Z,1014.24
2018-01-01T09:46:17.745Z,1014.3
2018-01-01T09:47:18.020Z,1014.26
2018-01-01T09:48:18.159Z,1014.09
2018-01-01T09:49:17.427Z,1014.2
2018-01-01T09:50:18.283Z,1014.11
2018-01-01T09:51:18.026Z,1014.11
2018-01-01T09:52:18.503Z,1014.11
2018-01-01T09:53:18.027Z,1014.08
2018-01-01T09:54:18.191Z,1014.1
2018-01-01T09:55:17.599Z,1013.98
2018-01-01T09:56:17.914Z,1013.92
2018-01-01T09:57:18.201Z,1013.84
2018-01-01T09:58:18.549Z,1013.8
2018-01-01T09:59:17.820Z,1013.73
2018-01-01T10:00:18.037Z,1013.68
2018-01-01T10:01:18.480Z,1013.61
2018-01-01T10:02:17.975Z,1013.71
2018-01-01T10:03:18.192Z,1013.68
2018-01-01T10:04:17.727Z,1013.69
2018-01-01T10:05:18.529Z,1013.67
2018-01-01T10:06:17.891Z,1013.63
2018-01-01T10:07:18.466Z,1013.66
2018-01-01T10:08:17.953Z,1013.64
2018-01-01T10:09:18.236Z,1013.65
2018-01-01T10:10:18.426Z,1013.65
2018-01-01T10:11:18.939Z,1013.63
2018-01-01T10:12:18.127Z,1013.62
2018-01-01T10:13:18.399Z,1013.56
2018-01-01T10:14:17.744Z,1013.56
2018-01-01T10:15:17.934Z,1013.46
2018-01-01T10:16:18.373Z,1013.42
2018-01-01T10:17:17.898Z,1013.47
2018-01-01T10:18:18.186Z,1013.42
2018-01-01T10:19:18.461Z,1013.41
2018-01-01T10:20:17.864Z,1013.41
2018-01-01T10:21:18.234Z,1013.44
2018-01-01T10:22:18.414Z,1013.37
2018-01-01T10:23:18.656Z,1013.4
2018-01-01T10:24:17.952Z,1013.39
2018-01-01T10:25:18.311Z,1013.33
2018-01-01T10:26:18.123Z,1013.35
2018-01-01T10:27:18.504Z,1013.31
2018-01-01T10:28:17.994Z,1013.35
2018-01-01T10:29:19.737Z,1013.26
2018-01-01T10:30:19.520Z,1013.28
2018-01-01T10:31:18.171Z,1013.24
2018-01-01T10:32:18.733Z,1013.25
2018-01-01T10:33:18.098Z,1013.24
2018-01-01T10:34:18.286Z,1013.25
2018-01-01T10:35:18.087Z,1013.24
2018-01-01T10:36:18.755Z,1013.18
2018-01-01T10:37:18.460Z,1013.16
2018-01-01T10:38:25.927Z,1013.16
2018-01-01T10:39:18.646Z,1013.31
2018-01-01T10:40:18.140Z,1013.07
2018-01-01T10:41:19.043Z,1013.13
2018-01-01T10:42:18.401Z,1013.11
2018-01-01T10:43:17.975Z,1013.06
2018-01-01T10:44:18.519Z,1013.08
2018-01-01T10:45:17.643Z,1013.01
2018-01-01T10:46:17.924Z,1013.03
2018-01-01T10:47:17.733Z,1012.99
2018-01-01T10:48:18.401Z,1012.92
2018-01-01T10:49:18.219Z,1012.89
2018-01-01T10:50:17.732Z,1012.89
2018-01-01T10:51:17.842Z,1012.92
2018-01-01T10:52:18.300Z,1012.81
2018-01-01T10:53:18.752Z,1012.8
2018-01-01T10:54:17.993Z,1012.87
2018-01-01T10:55:18.158Z,1012.78
2018-01-01T10:56:18.346Z,1012.72
2018-01-01T10:57:18.630Z,1012.66
2018-01-01T10:59:21.118Z,1012.64
2018-01-01T11:00:18.027Z,1012.53
2018-01-01T11:01:17.984Z,1012.62
2018-01-01T11:02:18.064Z,1012.55
2018-01-01T11:03:19.222Z,1012.56
2018-01-01T11:04:18.571Z,1012.58
2018-01-01T11:05:17.805Z,1012.57
2018-01-01T11:06:17.767Z,1012.55
2018-01-01T11:07:17.906Z,1012.49
2018-01-01T11:08:18.097Z,1012.48
2018-01-01T11:09:18.281Z,1012.42
2018-01-01T11:10:18.260Z,1012.48
2018-01-01T11:11:18.204Z,1012.42
2018-01-01T11:12:17.293Z,1012.39
2018-01-01T11:13:18.170Z,1012.36
2018-01-01T11:16:25.049Z,1012.24
2018-01-01T11:17:24.935Z,1012.23
2018-01-01T11:18:24.904Z,1012.21
2018-01-01T11:19:25.972Z,1012.07
2018-01-01T11:20:25.176Z,1012.15
2018-01-01T11:21:25.171Z,1012.1
2018-01-01T11:22:25.230Z,1011.99
2018-01-01T11:23:25.216Z,1011.93
2018-01-01T11:24:25.371Z,1011.89
2018-01-01T11:25:25.434Z,1011.85
2018-01-01T11:26:25.679Z,1011.8
2018-01-01T11:27:25.826Z,1011.83
2018-01-01T11:28:24.975Z,1011.75
2018-01-01T11:29:24.953Z,1011.79
2018-01-01T11:30:25.017Z,1011.77
2018-01-01T11:31:25.283Z,1011.77
2018-01-01T11:32:25.488Z,1011.71
2018-01-01T11:33:25.559Z,1011.7
2018-01-01T11:34:25.775Z,1011.72
2018-01-01T11:35:25.951Z,1011.63
2018-01-01T11:36:25.108Z,1011.66
2018-01-01T11:37:25.204Z,1011.68
2018-01-01T11:38:25.181Z,1011.61
2018-01-01T11:39:25.103Z,1011.62
2018-01-01T11:40:25.312Z,1011.65
2018-01-01T11:41:25.408Z,1011.61
2018-01-01T11:42:25.455Z,1011.59
2018-01-01T11:43:25.446Z,1011.56
2018-01-01T11:44:25.557Z,1011.56
2018-01-01T11:45:25.672Z,1011.52
2018-01-01T11:46:25.103Z,1011.49
2018-01-01T11:47:25.131Z,1011.49
2018-01-01T11:48:25.286Z,1011.44
2018-01-01T11:49:25.316Z,1011.29
2018-01-01T11:50:25.441Z,1011.41
2018-01-01T11:51:25.438Z,1011.37
2018-01-01T11:52:25.599Z,1011.28
2018-01-01T11:53:25.573Z,1011.29
2018-01-01T11:54:25.719Z,1011.24
2018-01-01T11:55:25.746Z,1011.21
2018-01-01T11:56:25.840Z,1011.18
2018-01-01T11:57:25.956Z,1011.09
2018-01-01T11:58:26.029Z,1011.07
2018-01-01T11:59:26.161Z,1011.05
2018-01-01T12:00:25.141Z,1010.99
2018-01-01T12:01:25.996Z,1010.99
2018-01-01T12:02:26.222Z,1010.95
2018-01-01T12:03:26.227Z,1010.92
2018-01-01T12:04:26.925Z,1010.92
2018-01-01T12:05:26.742Z,1010.79
2018-01-01T12:06:25.776Z,1010.77
2018-01-01T12:07:25.884Z,1010.77
2018-01-01T12:08:25.811Z,1010.75
2018-01-01T12:09:25.902Z,1010.78
2018-01-01T12:10:25.971Z,1010.68
2018-01-01T12:11:26.412Z,1010.62
2018-01-01T12:12:25.582Z,1010.6
2018-01-01T12:13:25.541Z,1010.63
2018-01-01T12:14:25.558Z,1010.59
2018-01-01T12:15:25.496Z,1010.53
2018-01-01T12:16:25.574Z,1010.57
2018-01-01T12:17:26.557Z,1010.49
2018-01-01T12:18:25.489Z,1010.41
2018-01-01T12:19:26.435Z,1010.32